TimeEDT,TemperatureF,Dew PointF,Humidity,Sea Level PressureIn,VisibilityMPH,Wind Direction,Wind SpeedMPH,Gust SpeedMPH,PrecipitationIn,Events,Conditions,WindDirDegrees,DateUTC
12:54 AM,55.0,37.9,53,30.14,10.0,North,8.1,-,N/A,,Overcast,350,2012-10-24 04:54:00
1:54 AM,53.1,37.9,57,30.15,10.0,NNE,9.2,-,N/A,,Overcast,20,2012-10-24 05:54:00
2:54 AM,51.1,36.0,56,30.14,10.0,NNE,11.5,-,N/A,,Overcast,20,2012-10-24 06:54:00
3:54 AM,50.0,36.0,59,30.14,10.0,North,6.9,-,N/A,,Mostly Cloudy,10,2012-10-24 07:54:00
4:54 AM,48.9,36.0,61,30.17,10.0,NNW,5.8,-,N/A,,Mostly Cloudy,340,2012-10-24 08:54:00
5:54 AM,48.0,35.1,61,30.17,10.0,North,5.8,-,N/A,,Mostly Cloudy,360,2012-10-24 09:54:00
6:54 AM,46.9,35.1,63,30.19,10.0,North,4.6,-,N/A,,Scattered Clouds,360,2012-10-24 10:54:00
7:54 AM,48.0,36.0,63,30.19,10.0,North,5.8,-,N/A,,Scattered Clouds,360,2012-10-24 11:54:00
8:54 AM,50.0,37.0,61,30.20,10.0,North,6.9,-,N/A,,Mostly Cloudy,10,2012-10-24 12:54:00
9:54 AM,52.0,37.9,59,30.20,10.0,ENE,6.9,-,N/A,,Mostly Cloudy,60,2012-10-24 13:54:00
10:54 AM,53.1,39.0,59,30.19,10.0,ENE,8.1,-,N/A,,Mostly Cloudy,70,2012-10-24 14:54:00
11:54 AM,52.0,37.9,59,30.19,10.0,East,6.9,-,N/A,,Mostly Cloudy,80,2012-10-24 15:54:00
12:54 PM,52.0,37.9,59,30.18,10.0,ESE,3.5,-,N/A,,Mostly Cloudy,110,2012-10-24 16:54:00
1:54 PM,52.0,39.0,61,30.17,10.0,SSE,3.5,-,N/A,,Mostly Cloudy,160,2012-10-24 17:54:00
2:54 PM,52.0,37.9,59,30.15,10.0,SSE,4.6,-,N/A,,Mostly Cloudy,150,2012-10-24 18:54:00
3:54 PM,53.1,37.9,57,30.15,10.0,SE,4.6,-,N/A,,Mostly Cloudy,140,2012-10-24 19:54:00
4:54 PM,52.0,39.0,61,30.16,10.0,SE,4.6,-,N/A,,Mostly Cloudy,140,2012-10-24 20:54:00
5:54 PM,52.0,37.0,57,30.17,9.0,SSE,3.5,-,N/A,,Mostly Cloudy,150,2012-10-24 21:54:00
6:54 PM,51.1,39.0,63,30.19,10.0,SE,3.5,-,N/A,,Scattered Clouds,140,2012-10-24 22:54:00
7:54 PM,51.1,39.9,66,30.19,10.0,SSE,3.5,-,N/A,,Partly Cloudy,160,2012-10-24 23:54:00
8:54 PM,52.0,43.0,71,30.21,10.0,SE,4.6,-,N/A,,Scattered Clouds,140,2012-10-25 00:54:00
9:54 PM,51.1,42.1,71,30.22,10.0,South,4.6,-,N/A,,Mostly Cloudy,170,2012-10-25 01:54:00
10:54 PM,51.1,42.1,71,30.22,10.0,Calm,Calm,-,N/A,,Mostly Cloudy,0,2012-10-25 02:54:00
11:54 PM,48.9,41.0,74,30.22,10.0,SSW,3.5,-,N/A,,Mostly Cloudy,210,2012-10-25 03:54:00